Zamračené s ľahkým dažďom
Zamračené s ľahkým dažďom
Zatiahnuté
Zatiahnuté
Zatiahnuté
Zatiahnuté
Zamračené s ľahkým dažďom
(°C)
(°C)
-1°
-2°
-2°
-2°
-2°
-3°
-3°
ZSZ
Z
Z
Z
Z
Z
Z
(km/h)
4-8
5-10
6-12
7-14
8-16
9-14
11-17
(mm)
1
0.6
0
0
0
0
0.7
(%)
99
85
55
60
53
65
77

Výška Slnka nad obzorom

/ -15.2°
sun-icon
UV 0
07:26
15:27
Dorastajúci polmesiac (161°)
14:14
05:36

Správy METAR pre lokalitu 52.17°S 20.97°V (EPWA)

Čas Podmienky Teplota/
Rosný bod
Vietor Viditeľnosť Počasie Oblaky Tlak Zmeniť Nespracované
LIFR 2°C / 2°C 90º 5kt 2700m Light Rain Mist 1.00mm precipitation Vertical Visibility of 0ft. 1011 Temporary: Visibility 1500. Rain . Mist . EPWA 061530Z 09005KT 2700 -RA BR BKN003 02/02 Q1011 TEMPO 1500 RA BR
LIFR 2°C / 2°C 90º 4kt 3800m Light Rain Mist 1.00mm precipitation Vertical Visibility of 0ft. 1011 Temporary: Visibility 2000. Mist . EPWA 061500Z 09004KT 3800 -RA BR BKN004 02/02 Q1011 TEMPO 2000 BR
LIFR 2°C / 2°C 100º 4kt 3200m Light Rain Mist 1.00mm precipitation Vertical Visibility of 0ft. 1011 Temporary: Visibility 2000. Rain . Mist . EPWA 061430Z 10004KT 3200 -RA BR BKN004 02/02 Q1011 TEMPO 2000 RA BR
LIFR 2°C / 2°C 120º 5kt 2200m Light Rain Mist 1.00mm precipitation Vertical Visibility of 0ft. 1012 Temporary: Visibility 3000. Mist . EPWA 061400Z 12005KT 2200 -RA BR BKN003 02/02 Q1012 TEMPO 3000 BR
LIFR 2°C / 2°C 120º 4kt 1700m Light Rain Mist 1.00mm precipitation Vertical Visibility of 0ft. 1012 Temporary: Visibility 3000. Mist . EPWA 061330Z 12004KT 1700 -RA BR BKN003 02/02 Q1012 TEMPO 3000 BR
LIFR 2°C / 2°C 130º 5kt 2700m Light Rain Mist 1.00mm precipitation Vertical Visibility of 0ft. 1012 Temporary: Visibility 1500. Rain . Mist . EPWA 061300Z 13005KT 2700 -RA BR BKN003 02/02 Q1012 TEMPO 1500 RA BR
LIFR 2°C / 2°C 110º 5kt 3500m Mist Vertical Visibility of 0ft. 1012 Temporary: Visibility 2000. Rain . Mist . EPWA 061230Z 11005KT 3500 BR BKN003 02/02 Q1012 TEMPO 2000 RA BR
LIFR 2°C / 2°C 120º 5kt 4000m Light Rain Mist 1.00mm precipitation Vertical Visibility of 0ft. 1013 Temporary: Visibility 2000. Rain . Mist . EPWA 061200Z 12005KT 4000 -RA BR BKN003 02/02 Q1013 TEMPO 2000 RA BR
LIFR 2°C / 2°C 120º 6kt 3300m Light Rain Mist 1.00mm precipitation Vertical Visibility of 0ft. 1013 Temporary: Visibility 2000. Rain . Mist . EPWA 061130Z 12006KT 3300 -RA BR BKN003 02/02 Q1013 TEMPO 2000 RA BR
LIFR 2°C / 1°C 120º 4kt 3500m Light Rain Mist 1.00mm precipitation Vertical Visibility of 0ft. 1013 Temporary: Visibility 2000. Rain . Mist . EPWA 061100Z 12004KT 3500 -RA BR BKN003 02/01 Q1013 TEMPO 2000 RA BR
LIFR 2°C / 1°C 120º 4kt 3500m Light Rain Mist 1.00mm precipitation Vertical Visibility of 0ft. 1014 Temporary: Visibility 2000. Rain . Mist . EPWA 061030Z 12004KT 3500 -RA BR BKN004 02/01 Q1014 TEMPO 2000 RA BR
LIFR 2°C / 1°C 130º 5kt 4200m Light Rain Mist 1.00mm precipitation Vertical Visibility of 0ft. 1014 Temporary: Visibility 2000. Rain . Mist . EPWA 061000Z 13005KT 4200 -RA BR BKN004 02/01 Q1014 TEMPO 2000 RA BR
LIFR 2°C / 1°C 130º 6kt 3800m Light Rain Mist 1.00mm precipitation Vertical Visibility of 0ft. 1015 Temporary: Visibility 2000. Rain . Mist . EPWA 060930Z 13006KT 3800 -RA BR BKN004 02/01 Q1015 TEMPO 2000 RA BR
LIFR 2°C / 1°C 130º 7kt 3200m Light Rain Mist 1.00mm precipitation Vertical Visibility of 0ft. 1015 Temporary: Visibility 2000. Rain . Mist . EPWA 060900Z 13007KT 3200 -RA BR BKN004 02/01 Q1015 TEMPO 2000 RA BR
LIFR 2°C / 1°C 120º 5kt 4000m Light Rain Mist 1.00mm precipitation Vertical Visibility of 0ft. 1015 Temporary: Visibility 2500. Rain . Mist . EPWA 060830Z 12005KT 4000 -RA BR BKN004 02/01 Q1015 TEMPO 2500 RA BR
LIFR 1°C / 1°C 110º 6kt 5000m Light Rain Mist 1.00mm precipitation Vertical Visibility of 0ft. 1015 Temporary: Visibility 2500. Rain . Mist . EPWA 060800Z 11006KT 5000 -RA BR BKN004 01/01 Q1015 TEMPO 2500 RA BR
LIFR 1°C / 1°C 130º 6kt 4800m Light Rain Mist 1.00mm precipitation Vertical Visibility of 0ft. 1015 Temporary: Visibility 2500. Rain . Mist . EPWA 060700Z 13006KT 4800 -RA BR BKN004 01/01 Q1015 TEMPO 2500 RA BR
LIFR 1°C / 1°C 130º 7kt 5000m Light Rain Mist 1.00mm precipitation Vertical Visibility of 0ft. 1016 Temporary: Visibility 3000. Rain . Mist . EPWA 060630Z 13007KT 5000 -RA BR BKN004 01/01 Q1016 TEMPO 3000 RA BR
LIFR 1°C / 1°C 130º 7kt 6000m - Overcast 400ft 1015 Temporary: Visibility 3000. Rain . Mist . EPWA 060600Z 13007KT 6000 OVC004 01/01 Q1015 TEMPO 3000 RA BR
LIFR 1°C / 1°C 130º 6kt 5000m Light Drizzle Mist 0.20mm precipitation Vertical Visibility of 0ft. 1016 Temporary: Visibility 3000. Mist . EPWA 060530Z 13006KT 5000 -DZ BR OVC004 01/01 Q1016 TEMPO 3000 BR
LIFR 1°C / 1°C 140º 6kt 6000m - Overcast 300ft 1016 No Significant change EPWA 060500Z 14006KT 6000 OVC003 01/01 Q1016 NOSIG
LIFR 1°C / 1°C 140º 6kt 5000m Mist Vertical Visibility of 0ft. 1016 No Significant change EPWA 060430Z 14006KT 5000 BR OVC003 01/01 Q1016 NOSIG
LIFR 1°C / 1°C 140º 6kt 5000m Mist Vertical Visibility of 0ft. 1017 No Significant change EPWA 060400Z 14006KT 5000 BR OVC004 01/01 Q1017 NOSIG
LIFR 1°C / 1°C 140º 7kt 6000m - Overcast 400ft 1017 No Significant change EPWA 060330Z 14007KT 6000 OVC004 01/01 Q1017 NOSIG

LIFR

2°C / 2°C

[Viac]
Vietor 90º 5kt
Viditeľnosť 2700m
Počasie Light Rain Mist 1.00mm precipitation
Oblaky Vertical Visibility of 0ft.
Tlak 1011
Zmeniť Temporary: Visibility 1500. Rain . Mist .
Nespracované EPWA 061530Z 09005KT 2700 -RA BR BKN003 02/02 Q1011 TEMPO 1500 RA BR

LIFR

2°C / 2°C

[Viac]
Vietor 90º 4kt
Viditeľnosť 3800m
Počasie Light Rain Mist 1.00mm precipitation
Oblaky Vertical Visibility of 0ft.
Tlak 1011
Zmeniť Temporary: Visibility 2000. Mist .
Nespracované EPWA 061500Z 09004KT 3800 -RA BR BKN004 02/02 Q1011 TEMPO 2000 BR

LIFR

2°C / 2°C

[Viac]
Vietor 100º 4kt
Viditeľnosť 3200m
Počasie Light Rain Mist 1.00mm precipitation
Oblaky Vertical Visibility of 0ft.
Tlak 1011
Zmeniť Temporary: Visibility 2000. Rain . Mist .
Nespracované EPWA 061430Z 10004KT 3200 -RA BR BKN004 02/02 Q1011 TEMPO 2000 RA BR

LIFR

2°C / 2°C

[Viac]
Vietor 120º 5kt
Viditeľnosť 2200m
Počasie Light Rain Mist 1.00mm precipitation
Oblaky Vertical Visibility of 0ft.
Tlak 1012
Zmeniť Temporary: Visibility 3000. Mist .
Nespracované EPWA 061400Z 12005KT 2200 -RA BR BKN003 02/02 Q1012 TEMPO 3000 BR

LIFR

2°C / 2°C

[Viac]
Vietor 120º 4kt
Viditeľnosť 1700m
Počasie Light Rain Mist 1.00mm precipitation
Oblaky Vertical Visibility of 0ft.
Tlak 1012
Zmeniť Temporary: Visibility 3000. Mist .
Nespracované EPWA 061330Z 12004KT 1700 -RA BR BKN003 02/02 Q1012 TEMPO 3000 BR

LIFR

2°C / 2°C

[Viac]
Vietor 130º 5kt
Viditeľnosť 2700m
Počasie Light Rain Mist 1.00mm precipitation
Oblaky Vertical Visibility of 0ft.
Tlak 1012
Zmeniť Temporary: Visibility 1500. Rain . Mist .
Nespracované EPWA 061300Z 13005KT 2700 -RA BR BKN003 02/02 Q1012 TEMPO 1500 RA BR

LIFR

2°C / 2°C

[Viac]
Vietor 110º 5kt
Viditeľnosť 3500m
Počasie Mist
Oblaky Vertical Visibility of 0ft.
Tlak 1012
Zmeniť Temporary: Visibility 2000. Rain . Mist .
Nespracované EPWA 061230Z 11005KT 3500 BR BKN003 02/02 Q1012 TEMPO 2000 RA BR

LIFR

2°C / 2°C

[Viac]
Vietor 120º 5kt
Viditeľnosť 4000m
Počasie Light Rain Mist 1.00mm precipitation
Oblaky Vertical Visibility of 0ft.
Tlak 1013
Zmeniť Temporary: Visibility 2000. Rain . Mist .
Nespracované EPWA 061200Z 12005KT 4000 -RA BR BKN003 02/02 Q1013 TEMPO 2000 RA BR

LIFR

2°C / 2°C

[Viac]
Vietor 120º 6kt
Viditeľnosť 3300m
Počasie Light Rain Mist 1.00mm precipitation
Oblaky Vertical Visibility of 0ft.
Tlak 1013
Zmeniť Temporary: Visibility 2000. Rain . Mist .
Nespracované EPWA 061130Z 12006KT 3300 -RA BR BKN003 02/02 Q1013 TEMPO 2000 RA BR

LIFR

2°C / 1°C

[Viac]
Vietor 120º 4kt
Viditeľnosť 3500m
Počasie Light Rain Mist 1.00mm precipitation
Oblaky Vertical Visibility of 0ft.
Tlak 1013
Zmeniť Temporary: Visibility 2000. Rain . Mist .
Nespracované EPWA 061100Z 12004KT 3500 -RA BR BKN003 02/01 Q1013 TEMPO 2000 RA BR

LIFR

2°C / 1°C

[Viac]
Vietor 120º 4kt
Viditeľnosť 3500m
Počasie Light Rain Mist 1.00mm precipitation
Oblaky Vertical Visibility of 0ft.
Tlak 1014
Zmeniť Temporary: Visibility 2000. Rain . Mist .
Nespracované EPWA 061030Z 12004KT 3500 -RA BR BKN004 02/01 Q1014 TEMPO 2000 RA BR

LIFR

2°C / 1°C

[Viac]
Vietor 130º 5kt
Viditeľnosť 4200m
Počasie Light Rain Mist 1.00mm precipitation
Oblaky Vertical Visibility of 0ft.
Tlak 1014
Zmeniť Temporary: Visibility 2000. Rain . Mist .
Nespracované EPWA 061000Z 13005KT 4200 -RA BR BKN004 02/01 Q1014 TEMPO 2000 RA BR

LIFR

2°C / 1°C

[Viac]
Vietor 130º 6kt
Viditeľnosť 3800m
Počasie Light Rain Mist 1.00mm precipitation
Oblaky Vertical Visibility of 0ft.
Tlak 1015
Zmeniť Temporary: Visibility 2000. Rain . Mist .
Nespracované EPWA 060930Z 13006KT 3800 -RA BR BKN004 02/01 Q1015 TEMPO 2000 RA BR

LIFR

2°C / 1°C

[Viac]
Vietor 130º 7kt
Viditeľnosť 3200m
Počasie Light Rain Mist 1.00mm precipitation
Oblaky Vertical Visibility of 0ft.
Tlak 1015
Zmeniť Temporary: Visibility 2000. Rain . Mist .
Nespracované EPWA 060900Z 13007KT 3200 -RA BR BKN004 02/01 Q1015 TEMPO 2000 RA BR

LIFR

2°C / 1°C

[Viac]
Vietor 120º 5kt
Viditeľnosť 4000m
Počasie Light Rain Mist 1.00mm precipitation
Oblaky Vertical Visibility of 0ft.
Tlak 1015
Zmeniť Temporary: Visibility 2500. Rain . Mist .
Nespracované EPWA 060830Z 12005KT 4000 -RA BR BKN004 02/01 Q1015 TEMPO 2500 RA BR

LIFR

1°C / 1°C

[Viac]
Vietor 110º 6kt
Viditeľnosť 5000m
Počasie Light Rain Mist 1.00mm precipitation
Oblaky Vertical Visibility of 0ft.
Tlak 1015
Zmeniť Temporary: Visibility 2500. Rain . Mist .
Nespracované EPWA 060800Z 11006KT 5000 -RA BR BKN004 01/01 Q1015 TEMPO 2500 RA BR

LIFR

1°C / 1°C

[Viac]
Vietor 130º 6kt
Viditeľnosť 4800m
Počasie Light Rain Mist 1.00mm precipitation
Oblaky Vertical Visibility of 0ft.
Tlak 1015
Zmeniť Temporary: Visibility 2500. Rain . Mist .
Nespracované EPWA 060700Z 13006KT 4800 -RA BR BKN004 01/01 Q1015 TEMPO 2500 RA BR

LIFR

1°C / 1°C

[Viac]
Vietor 130º 7kt
Viditeľnosť 5000m
Počasie Light Rain Mist 1.00mm precipitation
Oblaky Vertical Visibility of 0ft.
Tlak 1016
Zmeniť Temporary: Visibility 3000. Rain . Mist .
Nespracované EPWA 060630Z 13007KT 5000 -RA BR BKN004 01/01 Q1016 TEMPO 3000 RA BR

LIFR

1°C / 1°C

[Viac]
Vietor 130º 7kt
Viditeľnosť 6000m
Počasie -
Oblaky Overcast 400ft
Tlak 1015
Zmeniť Temporary: Visibility 3000. Rain . Mist .
Nespracované EPWA 060600Z 13007KT 6000 OVC004 01/01 Q1015 TEMPO 3000 RA BR

LIFR

1°C / 1°C

[Viac]
Vietor 130º 6kt
Viditeľnosť 5000m
Počasie Light Drizzle Mist 0.20mm precipitation
Oblaky Vertical Visibility of 0ft.
Tlak 1016
Zmeniť Temporary: Visibility 3000. Mist .
Nespracované EPWA 060530Z 13006KT 5000 -DZ BR OVC004 01/01 Q1016 TEMPO 3000 BR

LIFR

1°C / 1°C

[Viac]
Vietor 140º 6kt
Viditeľnosť 6000m
Počasie -
Oblaky Overcast 300ft
Tlak 1016
Zmeniť No Significant change
Nespracované EPWA 060500Z 14006KT 6000 OVC003 01/01 Q1016 NOSIG

LIFR

1°C / 1°C

[Viac]
Vietor 140º 6kt
Viditeľnosť 5000m
Počasie Mist
Oblaky Vertical Visibility of 0ft.
Tlak 1016
Zmeniť No Significant change
Nespracované EPWA 060430Z 14006KT 5000 BR OVC003 01/01 Q1016 NOSIG

LIFR

1°C / 1°C

[Viac]
Vietor 140º 6kt
Viditeľnosť 5000m
Počasie Mist
Oblaky Vertical Visibility of 0ft.
Tlak 1017
Zmeniť No Significant change
Nespracované EPWA 060400Z 14006KT 5000 BR OVC004 01/01 Q1017 NOSIG

LIFR

1°C / 1°C

[Viac]
Vietor 140º 7kt
Viditeľnosť 6000m
Počasie -
Oblaky Overcast 400ft
Tlak 1017
Zmeniť No Significant change
Nespracované EPWA 060330Z 14007KT 6000 OVC004 01/01 Q1017 NOSIG

Správy TAF pre lokalitu 52.17°S 20.97°V (EPWA)

From till


From till Wind variable 2kt. Visibility 3000m. Light Rain Mist . Broken Clouds 500ft.
Temporarly from till Visibility 997.791m. Rain Drizzle Mist . Overcast 300ft.
Becoming from till Wind 280º 10kt. Visibility 3000m. Light Rain Mist . Broken Clouds 500ft.
Temporarly from till Visibility 1200m. Rain Snow Mist . Overcast 300ft.
Becoming from till Wind 280º 10kt. Visibility 7000m. Light Rain Mist . Broken Clouds 1200ft.

Nespracované: TAF EPWA 061430Z 0615/0715 VRB02KT 3000 -RA BR BKN005 TEMPO 0615/0619 1000 RADZ BR OVC003 BECMG 0617/0619 28010KT TEMPO 0619/0708 1200 RASN BR OVC003 BECMG 0709/0712 7000 BKN012

Radar a krátkodobá predpoveď zrážok pre 52.17°S 20.97°V

Mrholenie
Slabý
Mierne
Ťažké
Veľmi ťažké
Krúpy

Značka polohy je umiestnená na 52.17°S 20.97°V. Táto animácia ukazuje zrážky pozorované radarom za poslednú hodinu a tiež 1h predpoveď. Mrholenie alebo slabé sneženie môže byť pre radar neviditeľné. Intenzita zrážok je farebne označená od svetlomodrej po oranžovú.

Aktuálne satelitné snímky a snímky zrážok pre lokalitu 52.17°S 20.97°V

Značka polohy je umiestnená na52.17°S 20.97°V. [Viac]

Satelitné snímky zhotovované v reálnom čase využívajú viditeľné svetlo počas dňa a infračervené žiarenie počas noci. Vzhľadom na to, že infračervené žiarenie zisťuje teplotné rozdiely, snímka v noci nie je tmavá. Nízke oblaky a hmlu je, žiaľ, ťažké odlíšiť od prízemných teplôt, preto môžu byť počas noci takmer neviditeľné. Meteosat satelitné snímky pre Európu sú aktualizované v reálnom čase každých 5 minút. Snímky z GOES-16/GOES-17 (Severná a Južná Amerika) a Himawari (Ázia) sú aktualizované každých 10 minút.

Zrážky sa odhadujú z radarov a satelitov. Odhady zrážok zo satelitov sú v noci menej presné ako počas dňa. Oranžové krížiky označujú miesta, kde bol zaznamenaný blesk (za Európa).

Copyright 2022 EUMETSAT / meteoblue. Údaje o bleskoch poskytuje nowcast.

Späť nahor